createdAt,value
2023-02-06T00:00:53.335Z,-1.30
2023-02-06T00:03:21.149Z,-1.20
2023-02-06T00:05:56.395Z,-1.40
2023-02-06T00:08:24.301Z,-1.60
2023-02-06T00:10:52.064Z,-1.90
2023-02-06T00:13:20.408Z,-2.00
2023-02-06T00:15:48.222Z,-2.10
2023-02-06T00:18:17.393Z,-2.20
2023-02-06T00:20:45.139Z,-2.10
2023-02-06T00:23:12.971Z,-2.10
2023-02-06T00:25:40.811Z,-2.20
2023-02-06T00:28:08.615Z,-2.20
2023-02-06T00:30:36.611Z,-2.10
2023-02-06T00:33:04.637Z,-2.00
2023-02-06T00:35:34.025Z,-2.00
2023-02-06T00:38:02.402Z,-2.00
2023-02-06T00:40:30.423Z,-2.00
2023-02-06T00:42:58.192Z,-2.00
2023-02-06T00:45:25.928Z,-2.10
2023-02-06T00:47:53.713Z,-2.10
2023-02-06T00:50:21.511Z,-2.00
2023-02-06T00:52:50.711Z,-1.90
2023-02-06T00:55:18.728Z,-1.80
2023-02-06T00:57:46.498Z,-1.80
2023-02-06T01:00:15.441Z,-1.80
2023-02-06T01:02:43.219Z,-1.80
2023-02-06T01:05:11.438Z,-1.80
2023-02-06T01:07:40.223Z,-1.80
2023-02-06T01:10:10.788Z,-1.80
2023-02-06T01:12:38.978Z,-1.80
2023-02-06T01:15:08.010Z,-1.80
2023-02-06T01:17:36.241Z,-1.80
2023-02-06T01:20:04.983Z,-1.90
2023-02-06T01:22:35.715Z,-2.00
2023-02-06T01:25:04.525Z,-2.20
2023-02-06T01:27:35.551Z,-2.50
2023-02-06T01:30:03.533Z,-2.60
2023-02-06T01:32:31.335Z,-2.60
2023-02-06T01:34:59.066Z,-2.60
2023-02-06T01:37:26.944Z,-2.60
2023-02-06T01:39:54.705Z,-2.80
2023-02-06T01:42:22.507Z,-2.80
2023-02-06T01:45:25.893Z,-2.70
2023-02-06T01:47:57.798Z,-2.60
2023-02-06T01:50:25.755Z,-2.60
2023-02-06T01:52:53.697Z,-2.70
2023-02-06T01:55:21.561Z,-2.80
2023-02-06T01:57:49.338Z,-2.80
2023-02-06T02:00:19.688Z,-2.70
2023-02-06T02:02:49.317Z,-2.60
2023-02-06T02:05:18.339Z,-2.60
2023-02-06T02:07:51.908Z,-2.50
2023-02-06T02:10:19.799Z,-2.50
2023-02-06T02:12:47.666Z,-2.40
2023-02-06T02:15:15.497Z,-2.30
2023-02-06T02:17:55.228Z,-2.30
2023-02-06T02:20:51.580Z,-2.40
2023-02-06T02:23:33.851Z,-2.30
2023-02-06T02:26:31.335Z,-2.30
2023-02-06T02:29:28.952Z,-2.40
2023-02-06T02:32:39.840Z,-2.50
2023-02-06T02:35:28.627Z,-2.50
2023-02-06T02:38:17.985Z,-2.70
2023-02-06T02:40:52.495Z,-2.80
2023-02-06T02:43:29.503Z,-3.00
2023-02-06T02:46:03.544Z,-3.00
2023-02-06T02:48:34.751Z,-2.90
2023-02-06T02:51:04.700Z,-2.90
2023-02-06T02:53:32.586Z,-2.90
2023-02-06T02:56:00.807Z,-2.90
2023-02-06T02:58:33.549Z,-2.90
2023-02-06T03:01:05.449Z,-2.90
2023-02-06T03:03:34.671Z,-3.00
2023-02-06T03:06:22.531Z,-2.90
2023-02-06T03:08:56.701Z,-2.90
2023-02-06T03:11:25.211Z,-2.90
2023-02-06T03:13:58.318Z,-2.90
2023-02-06T03:16:31.760Z,-2.90
2023-02-06T03:19:05.986Z,-3.00
2023-02-06T03:21:37.496Z,-2.90
2023-02-06T03:24:09.946Z,-2.90
2023-02-06T03:26:40.347Z,-2.70
2023-02-06T03:29:13.086Z,-2.60
2023-02-06T03:31:45.798Z,-2.50
2023-02-06T03:34:17.157Z,-2.30
2023-02-06T03:36:46.331Z,-2.10
2023-02-06T03:39:14.359Z,-1.90
2023-02-06T03:41:44.431Z,-1.90
2023-02-06T03:44:17.533Z,-1.90
2023-02-06T03:46:47.075Z,-2.00
2023-02-06T03:49:18.323Z,-1.90
2023-02-06T03:51:51.032Z,-1.90
2023-02-06T03:54:23.560Z,-2.00
2023-02-06T03:56:54.936Z,-2.00
2023-02-06T03:59:22.976Z,-2.00
2023-02-06T04:01:54.934Z,-2.00
2023-02-06T04:04:28.993Z,-2.10
2023-02-06T04:07:01.297Z,-2.10
2023-02-06T04:09:29.085Z,-2.10
2023-02-06T04:11:56.876Z,-2.10
2023-02-06T04:14:24.807Z,-2.00
2023-02-06T04:16:52.567Z,-2.10
2023-02-06T04:19:20.361Z,-2.10
2023-02-06T04:21:48.142Z,-2.10
2023-02-06T04:24:17.393Z,-2.00
2023-02-06T04:26:45.161Z,-1.90
2023-02-06T04:29:13.195Z,-1.90
2023-02-06T04:31:41.141Z,-1.70
2023-02-06T04:34:09.549Z,-1.70
2023-02-06T04:36:37.386Z,-1.70
2023-02-06T04:39:06.659Z,-1.60
2023-02-06T04:41:35.938Z,-1.50
2023-02-06T04:44:03.722Z,-1.70
2023-02-06T04:46:31.550Z,-1.70
2023-02-06T04:48:59.343Z,-1.70
2023-02-06T04:51:27.171Z,-1.70
2023-02-06T04:53:54.999Z,-1.60
2023-02-06T04:56:22.784Z,-1.60
2023-02-06T04:58:51.882Z,-1.50
2023-02-06T05:01:19.882Z,-1.50
2023-02-06T05:03:48.141Z,-1.40
2023-02-06T05:06:16.665Z,-1.30
2023-02-06T05:08:44.690Z,-1.20
2023-02-06T05:11:12.626Z,-1.10
2023-02-06T05:13:40.395Z,-1.10
2023-02-06T05:16:11.242Z,-1.10
2023-02-06T05:18:39.194Z,-1.10
2023-02-06T05:21:07.971Z,-1.10
2023-02-06T05:23:35.776Z,-1.10
2023-02-06T05:26:03.835Z,-1.00
2023-02-06T05:28:33.320Z,-1.00
2023-02-06T05:31:01.376Z,-0.90
2023-02-06T05:33:30.939Z,-0.80
2023-02-06T05:36:03.029Z,-0.80
2023-02-06T05:38:31.157Z,-0.80
2023-02-06T05:40:58.963Z,-0.80
2023-02-06T05:43:27.109Z,-0.70
2023-02-06T05:45:54.977Z,-0.80
2023-02-06T05:48:23.069Z,-0.70
2023-02-06T05:50:52.269Z,-0.60
2023-02-06T05:53:20.062Z,-0.70
2023-02-06T05:55:47.816Z,-0.80
2023-02-06T05:58:15.609Z,-1.00
2023-02-06T06:00:43.434Z,-0.80
2023-02-06T06:03:11.203Z,-0.80
2023-02-06T06:05:39.031Z,-0.70
2023-02-06T06:08:09.155Z,-0.70
2023-02-06T06:10:36.960Z,-0.70
2023-02-06T06:13:04.786Z,-0.70
2023-02-06T06:15:32.694Z,-0.70
2023-02-06T06:18:00.462Z,-0.80
2023-02-06T06:20:28.264Z,-0.90
2023-02-06T06:22:56.083Z,-1.00
2023-02-06T06:25:25.212Z,-1.00
2023-02-06T06:27:53.044Z,-0.90
2023-02-06T06:30:20.868Z,-1.00
2023-02-06T06:32:48.630Z,-1.00
2023-02-06T06:35:16.605Z,-1.10
2023-02-06T06:37:44.379Z,-1.10
2023-02-06T06:40:12.874Z,-1.00
2023-02-06T06:42:41.950Z,-0.90
2023-02-06T06:45:10.131Z,-0.90
2023-02-06T06:47:37.918Z,-0.80
2023-02-06T06:50:06.458Z,-0.80
2023-02-06T06:52:34.463Z,-0.70
2023-02-06T06:55:02.301Z,-0.60
2023-02-06T06:57:31.665Z,-0.50
2023-02-06T07:00:01.037Z,-0.50
2023-02-06T07:02:28.922Z,-0.50
2023-02-06T07:04:56.781Z,-0.40
2023-02-06T07:07:24.574Z,-0.40
2023-02-06T07:09:52.346Z,-0.30
2023-02-06T07:12:20.128Z,-0.30
2023-02-06T07:14:48.108Z,-0.30
2023-02-06T07:17:17.216Z,-0.30
2023-02-06T07:19:47.903Z,-0.20
2023-02-06T07:22:15.710Z,-0.20
2023-02-06T07:24:43.587Z,-0.20
2023-02-06T07:27:11.946Z,-0.30
2023-02-06T07:29:39.885Z,-0.30
2023-02-06T07:32:07.841Z,-0.30
2023-02-06T07:34:37.155Z,-0.20
2023-02-06T07:37:05.700Z,-0.30
2023-02-06T07:39:33.657Z,-0.30
2023-02-06T07:42:01.457Z,-0.30
2023-02-06T07:44:29.294Z,-0.30
2023-02-06T07:46:57.244Z,-0.30
2023-02-06T07:49:25.108Z,-0.30
2023-02-06T07:51:54.288Z,-0.30
2023-02-06T07:54:22.053Z,-0.20
2023-02-06T07:56:49.834Z,-0.20
2023-02-06T07:59:17.692Z,-0.10
2023-02-06T08:01:45.615Z,0.00
2023-02-06T08:04:13.492Z,0.00
2023-02-06T08:06:41.710Z,0.00
2023-02-06T08:09:13.175Z,0.00
2023-02-06T08:11:41.120Z,0.10
2023-02-06T08:14:08.883Z,0.10
2023-02-06T08:16:36.698Z,0.10
2023-02-06T08:19:06.748Z,0.10
2023-02-06T08:21:34.525Z,0.10
2023-02-06T08:24:02.357Z,0.10
2023-02-06T08:26:32.003Z,0.20
2023-02-06T08:29:03.883Z,0.20
2023-02-06T08:31:33.555Z,0.30
2023-02-06T08:34:01.802Z,0.30
2023-02-06T08:36:31.777Z,0.20
2023-02-06T08:39:00.558Z,0.00
2023-02-06T08:41:33.351Z,0.00
2023-02-06T08:44:02.681Z,0.00
2023-02-06T08:46:32.414Z,0.10
2023-02-06T08:49:02.069Z,0.10
2023-02-06T08:51:30.111Z,0.20
2023-02-06T08:53:58.733Z,0.30
2023-02-06T08:56:27.447Z,0.40
2023-02-06T08:58:59.409Z,0.50
2023-02-06T09:01:28.293Z,0.60
2023-02-06T09:03:56.594Z,0.60
2023-02-06T09:06:25.474Z,0.70
2023-02-06T09:08:53.947Z,0.70
2023-02-06T09:11:24.312Z,0.80
2023-02-06T09:13:54.902Z,0.80
2023-02-06T09:16:25.510Z,0.80
2023-02-06T09:18:54.337Z,0.90
2023-02-06T09:21:23.682Z,1.00
2023-02-06T09:23:52.852Z,1.00
2023-02-06T09:26:22.953Z,1.00
2023-02-06T09:28:53.724Z,1.00
2023-02-06T09:31:21.975Z,0.90
2023-02-06T09:33:51.238Z,1.00
2023-02-06T09:36:22.249Z,1.20
2023-02-06T09:38:51.161Z,1.30
2023-02-06T09:41:22.362Z,1.40
2023-02-06T09:43:53.395Z,1.40
2023-02-06T09:46:27.228Z,1.40
2023-02-06T09:48:58.137Z,1.40
2023-02-06T09:51:39.835Z,1.40
2023-02-06T09:54:17.520Z,1.50
2023-02-06T09:56:53.949Z,1.50
2023-02-06T09:59:28.994Z,1.50
2023-02-06T10:02:08.307Z,1.40
2023-02-06T10:04:45.190Z,1.40
2023-02-06T10:07:23.751Z,1.20
2023-02-06T10:09:55.082Z,1.10
2023-02-06T10:12:27.965Z,1.10
2023-02-06T10:14:59.941Z,1.10
2023-02-06T10:17:31.487Z,1.00
2023-02-06T10:20:03.967Z,1.10
2023-02-06T10:22:39.332Z,1.10
2023-02-06T10:25:22.139Z,1.20
2023-02-06T10:27:55.539Z,1.40
2023-02-06T10:30:32.156Z,1.70
2023-02-06T10:33:07.876Z,1.90
2023-02-06T10:35:50.635Z,2.10
2023-02-06T10:38:51.819Z,2.20
2023-02-06T10:41:32.431Z,2.50
2023-02-06T10:44:06.916Z,2.80
2023-02-06T10:46:44.250Z,3.20
2023-02-06T10:49:19.763Z,3.70
2023-02-06T10:51:52.750Z,3.90
2023-02-06T10:54:23.799Z,3.90
2023-02-06T10:56:53.209Z,3.70
2023-02-06T10:59:29.826Z,3.60
2023-02-06T11:02:13.621Z,3.60
2023-02-06T11:04:46.692Z,3.60
2023-02-06T11:07:18.339Z,3.60
2023-02-06T11:09:46.433Z,3.60
2023-02-06T11:12:26.059Z,3.60
2023-02-06T11:14:55.888Z,3.50
2023-02-06T11:17:28.071Z,3.40
2023-02-06T11:20:03.148Z,3.30
2023-02-06T11:22:38.944Z,3.10
2023-02-06T11:25:22.264Z,3.00
2023-02-06T11:27:50.827Z,2.80
2023-02-06T11:30:31.193Z,2.70
2023-02-06T11:33:04.566Z,2.60
2023-02-06T11:35:38.081Z,2.50
2023-02-06T11:38:15.303Z,2.40
2023-02-06T11:40:43.386Z,2.40
2023-02-06T11:43:20.924Z,2.30
2023-02-06T11:45:52.091Z,2.30
2023-02-06T11:48:36.994Z,2.30
2023-02-06T11:51:06.196Z,2.30
2023-02-06T11:53:35.715Z,2.30
2023-02-06T11:56:07.232Z,2.30
2023-02-06T11:58:35.101Z,2.30
2023-02-06T12:01:05.422Z,2.30
2023-02-06T12:03:36.351Z,2.30
2023-02-06T12:06:10.971Z,2.30
2023-02-06T12:08:48.954Z,2.30
2023-02-06T12:11:24.595Z,2.40
2023-02-06T12:13:55.307Z,2.40
2023-02-06T12:16:24.593Z,2.30
2023-02-06T12:18:56.030Z,2.30
2023-02-06T12:21:29.915Z,2.30
2023-02-06T12:24:02.194Z,2.40
2023-02-06T12:26:32.704Z,2.50
2023-02-06T12:29:03.787Z,2.60
2023-02-06T12:31:39.136Z,2.70
2023-02-06T12:34:14.629Z,2.80
2023-02-06T12:36:54.868Z,2.80
2023-02-06T12:39:24.285Z,2.90
2023-02-06T12:42:09.591Z,2.90
2023-02-06T12:44:41.533Z,3.10
2023-02-06T12:47:17.298Z,3.40
2023-02-06T12:49:54.165Z,3.60
2023-02-06T12:52:27.302Z,3.60
2023-02-06T12:55:01.770Z,3.50
2023-02-06T12:57:31.737Z,3.50
2023-02-06T13:00:17.552Z,3.40
2023-02-06T13:03:10.917Z,3.40
2023-02-06T13:05:41.380Z,3.40
2023-02-06T13:08:11.847Z,3.40
2023-02-06T13:10:41.444Z,3.50
2023-02-06T13:13:26.781Z,3.50
2023-02-06T13:15:56.180Z,3.40
2023-02-06T13:18:52.767Z,3.40
2023-02-06T13:21:25.013Z,3.30
2023-02-06T13:24:13.435Z,3.20
2023-02-06T13:27:17.023Z,3.10
2023-02-06T13:29:47.368Z,3.00
2023-02-06T13:32:46.176Z,2.90
2023-02-06T13:35:24.850Z,2.80
2023-02-06T13:38:11.671Z,2.70
2023-02-06T13:40:39.469Z,2.60
2023-02-06T13:43:17.094Z,2.60
2023-02-06T13:45:50.942Z,2.50
2023-02-06T13:48:39.298Z,2.50
2023-02-06T13:51:30.942Z,2.50
2023-02-06T13:54:23.940Z,2.50
2023-02-06T13:57:04.582Z,2.60
2023-02-06T13:59:36.915Z,2.50
2023-02-06T14:02:13.401Z,2.60
2023-02-06T14:04:44.712Z,2.60
2023-02-06T14:07:34.697Z,2.70
2023-02-06T14:10:11.097Z,2.70
2023-02-06T14:12:53.515Z,2.80
2023-02-06T14:15:31.220Z,2.70
2023-02-06T14:18:30.213Z,2.70
2023-02-06T14:21:07.853Z,2.60
2023-02-06T14:23:49.000Z,2.50
2023-02-06T14:26:28.687Z,2.50
2023-02-06T14:29:04.361Z,2.40
2023-02-06T14:31:46.596Z,2.50
2023-02-06T14:34:30.540Z,2.50
2023-02-06T14:37:15.522Z,2.60
2023-02-06T14:39:46.862Z,2.60
2023-02-06T14:42:18.648Z,2.60
2023-02-06T14:44:51.157Z,2.60
2023-02-06T14:47:23.171Z,2.60
2023-02-06T14:49:53.814Z,2.60
2023-02-06T14:52:24.703Z,2.60
2023-02-06T14:54:52.812Z,2.60
2023-02-06T14:57:24.256Z,2.60
2023-02-06T14:59:57.381Z,2.60
2023-02-06T15:02:30.299Z,2.50
2023-02-06T15:05:01.858Z,2.50
2023-02-06T15:07:32.400Z,2.50
2023-02-06T15:10:05.543Z,2.40
2023-02-06T15:12:34.174Z,2.40
2023-02-06T15:15:05.205Z,2.40
2023-02-06T15:17:34.284Z,2.40
2023-02-06T15:20:29.800Z,2.30
2023-02-06T15:23:08.192Z,2.40
2023-02-06T15:26:03.680Z,2.30
2023-02-06T15:28:36.851Z,2.30
2023-02-06T15:31:05.229Z,2.30
2023-02-06T15:33:35.145Z,2.30
2023-02-06T15:36:05.243Z,2.30
2023-02-06T15:38:34.838Z,2.30
2023-02-06T15:41:06.300Z,2.30
2023-02-06T15:43:35.306Z,2.30
2023-02-06T15:46:05.680Z,2.30
2023-02-06T15:48:37.792Z,2.30
2023-02-06T15:51:20.673Z,2.30
2023-02-06T15:53:50.496Z,2.30
2023-02-06T15:56:24.086Z,2.30
2023-02-06T15:58:58.750Z,2.30
2023-02-06T16:01:27.633Z,2.30
2023-02-06T16:04:00.484Z,2.30
2023-02-06T16:06:29.674Z,2.30
2023-02-06T16:09:00.920Z,2.30
2023-02-06T16:11:50.737Z,2.30
2023-02-06T16:14:22.715Z,2.30
2023-02-06T16:16:58.283Z,2.30
2023-02-06T16:19:38.799Z,2.30
2023-02-06T16:22:25.292Z,2.30
2023-02-06T16:24:56.081Z,2.30
2023-02-06T16:27:26.959Z,2.30
2023-02-06T16:29:57.186Z,2.30
2023-02-06T16:32:28.885Z,2.20
2023-02-06T16:34:57.007Z,2.30
2023-02-06T16:37:28.763Z,2.20
2023-02-06T16:39:57.064Z,2.20
2023-02-06T16:42:27.117Z,2.20
2023-02-06T16:44:59.522Z,2.10
2023-02-06T16:47:27.997Z,2.00
2023-02-06T16:49:55.802Z,2.00
2023-02-06T16:52:27.355Z,2.00
2023-02-06T16:54:57.660Z,2.00
2023-02-06T16:57:32.333Z,1.90
2023-02-06T17:00:00.581Z,2.00
2023-02-06T17:02:29.374Z,1.90
2023-02-06T17:04:57.498Z,2.00
2023-02-06T17:07:31.690Z,2.10
2023-02-06T17:10:00.387Z,2.10
2023-02-06T17:12:29.494Z,2.10
2023-02-06T17:14:57.344Z,2.00
2023-02-06T17:17:25.407Z,2.00
2023-02-06T17:19:53.962Z,2.00
2023-02-06T17:22:22.069Z,1.90
2023-02-06T17:24:51.243Z,1.90
2023-02-06T17:27:21.134Z,1.90
2023-02-06T17:29:49.762Z,1.80
2023-02-06T17:32:21.899Z,1.80
2023-02-06T17:34:53.937Z,1.80
2023-02-06T17:37:21.823Z,1.80
2023-02-06T17:39:53.044Z,1.80
2023-02-06T17:42:23.054Z,1.70
2023-02-06T17:44:50.950Z,1.70
2023-02-06T17:47:18.908Z,1.60
2023-02-06T17:49:47.534Z,1.60
2023-02-06T17:52:15.656Z,1.60
2023-02-06T17:54:43.748Z,1.60
2023-02-06T17:57:14.161Z,1.50
2023-02-06T17:59:41.951Z,1.50
2023-02-06T18:02:13.527Z,1.50
2023-02-06T18:04:41.519Z,1.40
2023-02-06T18:07:09.362Z,1.40
2023-02-06T18:09:37.378Z,1.40
2023-02-06T18:12:05.305Z,1.40
2023-02-06T18:14:35.463Z,1.40
2023-02-06T18:17:04.298Z,1.30
2023-02-06T18:19:40.396Z,1.40
2023-02-06T18:22:08.594Z,1.30
2023-02-06T18:24:36.419Z,1.40
2023-02-06T18:27:05.496Z,1.40
2023-02-06T18:29:48.516Z,1.40
2023-02-06T18:32:17.534Z,1.40
2023-02-06T18:34:45.393Z,1.40
2023-02-06T18:37:13.480Z,1.30
2023-02-06T18:39:41.282Z,1.30
2023-02-06T18:42:27.690Z,1.30
2023-02-06T18:44:56.798Z,1.30
2023-02-06T18:47:24.604Z,1.30
2023-02-06T18:49:52.559Z,1.40
2023-02-06T18:52:20.607Z,1.30
2023-02-06T18:54:48.707Z,1.30
2023-02-06T18:57:16.541Z,1.30
2023-02-06T18:59:44.314Z,1.30
2023-02-06T19:02:13.843Z,1.20
2023-02-06T19:04:41.692Z,1.10
2023-02-06T19:07:11.535Z,1.00
2023-02-06T19:09:39.449Z,0.90
2023-02-06T19:12:07.858Z,0.90
2023-02-06T19:14:35.811Z,0.90
2023-02-06T19:17:03.659Z,0.90
2023-02-06T19:19:32.896Z,0.80
2023-02-06T19:22:00.676Z,0.80
2023-02-06T19:24:30.483Z,0.70
2023-02-06T19:26:58.480Z,0.70
2023-02-06T19:29:35.125Z,0.60
2023-02-06T19:32:04.736Z,0.60
2023-02-06T19:34:35.916Z,0.60
2023-02-06T19:37:04.138Z,0.50
2023-02-06T19:39:33.958Z,0.50
2023-02-06T19:42:01.899Z,0.50
2023-02-06T19:44:29.802Z,0.40
2023-02-06T19:46:58.185Z,0.50
2023-02-06T19:49:26.822Z,0.40
2023-02-06T19:51:56.052Z,0.40
2023-02-06T19:54:23.847Z,0.40
2023-02-06T19:56:51.644Z,0.30
2023-02-06T19:59:21.241Z,0.30
2023-02-06T20:01:52.127Z,0.40
2023-02-06T20:04:21.255Z,0.40
2023-02-06T20:06:50.986Z,0.30
2023-02-06T20:09:21.452Z,0.30
2023-02-06T20:11:50.040Z,0.20
2023-02-06T20:14:18.520Z,0.20
2023-02-06T20:16:47.564Z,0.20
2023-02-06T20:19:18.532Z,0.10
2023-02-06T20:21:48.644Z,0.00
2023-02-06T20:24:20.546Z,0.00
2023-02-06T20:26:51.394Z,-0.10
2023-02-06T20:29:22.293Z,-0.10
2023-02-06T20:31:50.991Z,-0.20
2023-02-06T20:34:19.307Z,-0.30
2023-02-06T20:36:47.559Z,-0.30
2023-02-06T20:39:15.958Z,-0.40
2023-02-06T20:41:45.426Z,-0.40
2023-02-06T20:44:15.159Z,-0.50
2023-02-06T20:46:43.817Z,-0.50
2023-02-06T20:49:15.604Z,-0.60
2023-02-06T20:51:43.456Z,-0.60
2023-02-06T20:54:12.288Z,-0.60
2023-02-06T20:56:40.676Z,-0.60
2023-02-06T20:59:08.920Z,-0.70
2023-02-06T21:01:38.083Z,-0.70
2023-02-06T21:04:07.839Z,-0.70
2023-02-06T21:06:36.762Z,-0.70
2023-02-06T21:09:05.826Z,-0.80
2023-02-06T21:11:36.769Z,-0.90
2023-02-06T21:14:06.197Z,-1.00
2023-02-06T21:16:34.941Z,-1.00
2023-02-06T21:19:05.777Z,-1.00
2023-02-06T21:21:34.327Z,-1.10
2023-02-06T21:24:02.119Z,-1.10
2023-02-06T21:26:30.935Z,-1.10
2023-02-06T21:29:00.202Z,-1.10
2023-02-06T21:31:36.024Z,-1.10
2023-02-06T21:34:09.001Z,-1.10
2023-02-06T21:36:38.224Z,-1.10
2023-02-06T21:39:06.783Z,-1.10
2023-02-06T21:41:34.836Z,-1.20
2023-02-06T21:44:03.301Z,-1.20
2023-02-06T21:46:31.178Z,-1.20
2023-02-06T21:48:59.145Z,-1.30
2023-02-06T21:51:28.547Z,-1.30
2023-02-06T21:53:56.851Z,-1.30
2023-02-06T21:56:27.890Z,-1.30
2023-02-06T21:58:55.879Z,-1.40
2023-02-06T22:01:26.142Z,-1.40
2023-02-06T22:03:54.064Z,-1.40
2023-02-06T22:06:22.146Z,-1.40
2023-02-06T22:08:52.925Z,-1.40
2023-02-06T22:11:22.899Z,-1.50
2023-02-06T22:13:51.397Z,-1.50
2023-02-06T22:16:21.501Z,-1.50
2023-02-06T22:18:49.746Z,-1.50
2023-02-06T22:21:19.920Z,-1.60
2023-02-06T22:23:49.470Z,-1.60
2023-02-06T22:26:21.553Z,-1.60
2023-02-06T22:28:49.887Z,-1.60
2023-02-06T22:31:20.168Z,-1.70
2023-02-06T22:33:48.085Z,-1.70
2023-02-06T22:36:18.632Z,-1.70
2023-02-06T22:38:48.347Z,-1.70
2023-02-06T22:41:18.919Z,-1.70
2023-02-06T22:43:49.080Z,-1.70
2023-02-06T22:46:20.202Z,-1.80
2023-02-06T22:48:48.563Z,-1.70
2023-02-06T22:51:16.362Z,-1.80
2023-02-06T22:53:44.485Z,-1.80
2023-02-06T22:56:31.110Z,-1.80
2023-02-06T22:59:02.110Z,-1.80
2023-02-06T23:01:33.108Z,-1.80
2023-02-06T23:04:02.562Z,-1.80
2023-02-06T23:06:32.302Z,-1.80
2023-02-06T23:09:02.064Z,-1.80
2023-02-06T23:11:31.636Z,-1.80
2023-02-06T23:14:03.658Z,-1.80
2023-02-06T23:16:33.121Z,-1.80
2023-02-06T23:19:04.348Z,-1.90
2023-02-06T23:21:33.634Z,-1.90
2023-02-06T23:24:01.645Z,-1.90
2023-02-06T23:26:31.113Z,-2.00
2023-02-06T23:29:02.588Z,-2.00
2023-02-06T23:31:30.587Z,-2.00
2023-02-06T23:33:58.405Z,-2.00
2023-02-06T23:36:28.187Z,-2.00
2023-02-06T23:38:56.470Z,-2.00
2023-02-06T23:41:26.366Z,-2.10
2023-02-06T23:43:55.775Z,-2.10
2023-02-06T23:46:25.975Z,-2.10
2023-02-06T23:48:54.033Z,-2.10
2023-02-06T23:51:22.610Z,-2.10
2023-02-06T23:53:50.906Z,-2.20
2023-02-06T23:56:21.410Z,-2.10
2023-02-06T23:58:49.734Z,-2.20
